createdAt,value
2019-02-20T00:03:41.273Z,8.22
2019-02-20T00:06:05.674Z,8.11
2019-02-20T00:08:30.179Z,8.08
2019-02-20T00:10:54.655Z,8.26
2019-02-20T00:13:19.064Z,8.32
2019-02-20T00:15:43.490Z,8.27
2019-02-20T00:18:13.601Z,8.34
2019-02-20T00:20:38.035Z,8.36
2019-02-20T00:23:02.447Z,8.41
2019-02-20T00:25:26.900Z,8.45
2019-02-20T00:27:51.296Z,8.55
2019-02-20T00:30:15.745Z,8.48
2019-02-20T00:32:40.143Z,8.29
2019-02-20T00:38:01.884Z,8.36
2019-02-20T00:40:26.268Z,8.37
2019-02-20T00:42:50.673Z,8.23
2019-02-20T00:48:09.574Z,7.89
2019-02-20T00:53:25.007Z,8.06
2019-02-20T00:55:51.051Z,8.18
2019-02-20T00:58:15.458Z,7.94
2019-02-20T01:00:40.029Z,7.99
2019-02-20T01:08:37.921Z,8.10
2019-02-20T01:11:02.336Z,8.03
2019-02-20T01:13:26.731Z,8.10
2019-02-20T01:15:51.223Z,8.05
2019-02-20T01:20:51.397Z,8.13
2019-02-20T01:23:15.945Z,8.04
2019-02-20T01:28:16.662Z,7.89
2019-02-20T01:30:41.089Z,8.13
2019-02-20T01:33:05.569Z,7.97
2019-02-20T01:35:30.005Z,7.79
2019-02-20T01:40:30.648Z,7.76
2019-02-20T01:45:31.428Z,7.95
2019-02-20T01:47:55.852Z,8.15
2019-02-20T01:50:20.246Z,7.88
2019-02-20T01:52:44.660Z,7.91
2019-02-20T01:55:09.213Z,8.09
2019-02-20T01:57:33.638Z,8.17
2019-02-20T01:59:58.045Z,8.17
2019-02-20T02:02:22.485Z,8.17
2019-02-20T02:04:46.883Z,8.15
2019-02-20T02:07:11.284Z,8.33
2019-02-20T02:09:35.701Z,8.04
2019-02-20T02:12:00.106Z,8.00
2019-02-20T02:14:24.543Z,8.22
2019-02-20T02:16:48.957Z,8.12
2019-02-20T02:19:13.384Z,8.36
2019-02-20T02:21:37.797Z,8.30
2019-02-20T02:24:02.220Z,8.01
2019-02-20T02:31:42.191Z,8.00
2019-02-20T02:34:06.713Z,8.30
2019-02-20T02:36:31.118Z,8.21
2019-02-20T02:38:55.522Z,8.04
2019-02-20T02:41:19.948Z,8.25
2019-02-20T02:43:44.417Z,8.23
2019-02-20T02:46:08.902Z,8.44
2019-02-20T02:48:33.301Z,8.73
2019-02-20T02:50:57.741Z,8.58
2019-02-20T02:53:30.399Z,8.75
2019-02-20T02:55:54.010Z,8.49
2019-02-20T02:58:18.422Z,8.51
2019-02-20T03:00:42.931Z,8.34
2019-02-20T03:03:07.339Z,8.24
2019-02-20T03:08:08.390Z,8.19
2019-02-20T03:10:32.823Z,8.01
2019-02-20T03:12:57.224Z,8.12
2019-02-20T03:15:21.642Z,8.11
2019-02-20T03:17:46.153Z,8.22
2019-02-20T03:22:46.479Z,8.07
2019-02-20T03:25:10.946Z,7.86
2019-02-20T03:27:35.367Z,7.76
2019-02-20T03:29:59.771Z,8.08
2019-02-20T03:32:24.216Z,8.27
2019-02-20T03:34:48.619Z,8.10
2019-02-20T03:37:13.017Z,8.27
2019-02-20T03:39:37.440Z,8.24
2019-02-20T03:42:01.845Z,8.07
2019-02-20T03:44:26.276Z,7.83
2019-02-20T03:46:50.695Z,8.04
2019-02-20T03:49:15.106Z,7.90
2019-02-20T03:51:39.586Z,8.03
2019-02-20T03:54:04.163Z,8.20
2019-02-20T03:59:04.688Z,7.99
2019-02-20T04:01:29.135Z,8.26
2019-02-20T04:03:53.535Z,8.18
2019-02-20T04:06:17.958Z,8.40
2019-02-20T04:08:48.389Z,8.12
2019-02-20T04:11:12.831Z,8.09
2019-02-20T04:13:37.241Z,7.97
2019-02-20T04:16:01.652Z,8.02
2019-02-20T04:18:26.051Z,8.30
2019-02-20T04:20:50.484Z,8.08
2019-02-20T04:23:14.894Z,8.08
2019-02-20T04:28:15.629Z,7.92
2019-02-20T04:30:40.046Z,8.07
2019-02-20T04:33:04.539Z,8.05
2019-02-20T04:35:28.933Z,7.99
2019-02-20T04:40:38.438Z,8.20
2019-02-20T04:48:14.788Z,8.13
2019-02-20T04:50:39.269Z,8.24
2019-02-20T04:53:03.696Z,8.17
2019-02-20T04:55:28.169Z,8.11
2019-02-20T04:58:13.384Z,8.04
2019-02-20T05:03:14.306Z,8.12
2019-02-20T05:05:38.714Z,8.04
2019-02-20T05:10:38.874Z,8.26
2019-02-20T05:13:03.307Z,8.02
2019-02-20T05:15:27.756Z,8.00
2019-02-20T05:17:52.179Z,8.13
2019-02-20T05:20:16.598Z,7.98
2019-02-20T05:22:41.012Z,7.98
2019-02-20T05:28:01.922Z,8.18
2019-02-20T05:33:02.850Z,8.08
2019-02-20T05:38:03.434Z,8.16
2019-02-20T05:40:27.957Z,8.16
2019-02-20T05:42:52.343Z,7.95
2019-02-20T05:45:16.792Z,7.73
2019-02-20T05:47:41.191Z,7.84
2019-02-20T05:53:02.435Z,7.74
2019-02-20T05:55:39.598Z,7.76
2019-02-20T05:58:03.991Z,7.55
2019-02-20T06:03:07.532Z,7.68
2019-02-20T06:05:31.988Z,7.72
2019-02-20T06:07:56.405Z,7.68
2019-02-20T06:10:20.783Z,7.79
2019-02-20T06:12:45.215Z,7.63
2019-02-20T06:18:06.082Z,7.43
2019-02-20T06:28:20.133Z,7.76
2019-02-20T06:30:44.543Z,7.65
2019-02-20T06:33:08.985Z,8.07
2019-02-20T06:40:45.226Z,8.12
2019-02-20T06:45:45.665Z,7.77
2019-02-20T06:48:10.107Z,8.01
2019-02-20T06:50:34.516Z,7.88
2019-02-20T06:55:35.408Z,7.75
2019-02-20T07:00:35.835Z,8.24
2019-02-20T07:03:00.256Z,8.02
2019-02-20T07:05:44.023Z,8.10
2019-02-20T07:14:40.922Z,8.31
2019-02-20T07:17:43.920Z,8.20
2019-02-20T07:20:46.951Z,8.48
2019-02-20T07:26:47.225Z,8.13
2019-02-20T07:32:08.633Z,7.94
2019-02-20T07:37:09.545Z,7.85
2019-02-20T07:39:33.954Z,7.76
2019-02-20T07:41:58.454Z,8.03
2019-02-20T07:44:22.851Z,7.91
2019-02-20T07:46:47.288Z,8.22
2019-02-20T07:49:11.697Z,8.49
2019-02-20T07:51:36.138Z,8.21
2019-02-20T07:54:00.543Z,8.10
2019-02-20T07:56:25.029Z,8.25
2019-02-20T07:58:49.506Z,8.34
2019-02-20T08:01:13.953Z,8.33
2019-02-20T08:06:14.407Z,8.02
2019-02-20T08:08:38.848Z,7.96
2019-02-20T08:11:03.437Z,8.08
2019-02-20T08:13:27.826Z,8.32
2019-02-20T08:15:52.220Z,8.04
2019-02-20T08:18:16.649Z,8.31
2019-02-20T08:20:41.050Z,8.19
2019-02-20T08:25:41.515Z,8.32
2019-02-20T08:28:06.075Z,8.38
2019-02-20T08:30:30.480Z,8.22
2019-02-20T08:35:30.984Z,8.17
2019-02-20T08:37:55.391Z,8.25
2019-02-20T08:42:59.003Z,8.28
2019-02-20T08:45:23.493Z,8.11
2019-02-20T08:47:53.389Z,8.30
2019-02-20T08:50:17.970Z,7.86
2019-02-20T08:52:42.367Z,8.41
2019-02-20T09:03:15.968Z,8.12
2019-02-20T09:05:40.410Z,8.47
2019-02-20T09:08:04.908Z,8.31
2019-02-20T09:10:29.326Z,8.62
2019-02-20T09:12:53.778Z,8.52
2019-02-20T09:15:18.169Z,8.44
2019-02-20T09:17:42.595Z,8.54
2019-02-20T09:20:14.153Z,8.58
2019-02-20T09:22:39.608Z,8.62
2019-02-20T09:30:43.582Z,8.55
2019-02-20T09:33:08.025Z,8.59
2019-02-20T09:35:32.446Z,8.69
2019-02-20T09:37:56.879Z,8.80
2019-02-20T09:43:00.188Z,8.87
2019-02-20T09:48:01.102Z,9.13
2019-02-20T09:50:25.512Z,9.18
2019-02-20T09:52:52.316Z,9.07
2019-02-20T09:55:34.821Z,9.37
2019-02-20T09:57:59.259Z,9.13
2019-02-20T10:00:23.681Z,9.05
2019-02-20T10:02:48.092Z,9.16
2019-02-20T10:05:12.590Z,9.20
2019-02-20T10:07:37.068Z,9.33
2019-02-20T10:10:01.505Z,9.62
2019-02-20T10:12:25.905Z,9.88
2019-02-20T10:14:50.351Z,9.72
2019-02-20T10:19:53.822Z,9.77
2019-02-20T10:22:18.291Z,9.89
2019-02-20T10:24:42.731Z,9.99
2019-02-20T10:27:07.155Z,10.11
2019-02-20T10:29:31.595Z,9.85
2019-02-20T10:31:56.025Z,10.13
2019-02-20T10:34:20.435Z,10.80
2019-02-20T10:39:26.844Z,10.76
2019-02-20T10:41:51.364Z,10.35
2019-02-20T10:44:15.782Z,10.36
2019-02-20T10:46:40.287Z,10.72
2019-02-20T10:51:41.116Z,10.74
2019-02-20T10:54:05.598Z,10.63
2019-02-20T10:56:30.113Z,10.54
2019-02-20T10:58:54.522Z,10.61
2019-02-20T11:01:19.037Z,10.61
2019-02-20T11:03:43.582Z,10.96
2019-02-20T11:06:08.088Z,10.91
2019-02-20T11:08:32.578Z,10.82
2019-02-20T11:10:57.015Z,11.51
2019-02-20T11:18:33.892Z,11.06
2019-02-20T11:20:58.344Z,11.14
2019-02-20T11:23:22.767Z,10.89
2019-02-20T11:25:47.222Z,10.91
2019-02-20T11:28:11.715Z,11.31
2019-02-20T11:30:36.196Z,10.80
2019-02-20T11:33:00.645Z,10.60
2019-02-20T11:35:25.079Z,10.44
2019-02-20T11:37:49.602Z,11.03
2019-02-20T11:40:14.189Z,11.11
2019-02-20T11:42:38.630Z,10.91
2019-02-20T11:47:39.137Z,10.91
2019-02-20T11:50:14.796Z,11.13
2019-02-20T11:52:50.110Z,11.28
2019-02-20T11:58:11.715Z,12.55
2019-02-20T12:00:36.193Z,12.68
2019-02-20T12:03:00.644Z,12.76
2019-02-20T12:05:25.054Z,13.55
2019-02-20T12:07:49.578Z,13.64
2019-02-20T12:13:11.065Z,13.62
2019-02-20T12:15:35.558Z,15.72
2019-02-20T12:18:00.014Z,16.16
2019-02-20T12:20:24.424Z,16.45
2019-02-20T12:22:48.939Z,17.74
2019-02-20T12:25:13.349Z,16.84
2019-02-20T12:27:37.911Z,17.16
2019-02-20T12:30:02.399Z,17.70
2019-02-20T12:35:03.023Z,17.47
2019-02-20T12:37:27.447Z,17.59
2019-02-20T12:39:51.890Z,15.49
2019-02-20T12:44:52.423Z,14.61
2019-02-20T12:47:37.627Z,16.02
2019-02-20T12:50:02.061Z,18.66
2019-02-20T12:55:03.133Z,18.66
2019-02-20T12:57:27.681Z,16.94
2019-02-20T12:59:52.124Z,18.38
2019-02-20T13:02:16.570Z,17.81
2019-02-20T13:04:41.029Z,19.36
2019-02-20T13:09:41.561Z,15.58
2019-02-20T13:12:05.986Z,13.67
2019-02-20T13:19:43.318Z,13.12
2019-02-20T13:22:07.747Z,12.20
2019-02-20T13:24:32.311Z,15.63
2019-02-20T13:26:56.749Z,15.77
2019-02-20T13:29:21.168Z,17.66
2019-02-20T13:31:45.617Z,16.33
2019-02-20T13:34:10.032Z,16.86
2019-02-20T13:39:22.615Z,16.96
2019-02-20T13:41:47.119Z,16.03
2019-02-20T13:44:13.005Z,13.89
2019-02-20T13:46:43.401Z,13.42
2019-02-20T13:49:15.334Z,15.13
2019-02-20T13:51:39.844Z,14.32
2019-02-20T13:54:04.338Z,15.20
2019-02-20T13:56:28.870Z,13.67
2019-02-20T14:01:29.312Z,12.72
2019-02-20T14:09:08.880Z,13.45
2019-02-20T14:11:33.398Z,14.44
2019-02-20T14:13:57.845Z,13.56
2019-02-20T14:16:22.242Z,14.13
2019-02-20T14:18:46.756Z,14.56
2019-02-20T14:21:11.161Z,13.96
2019-02-20T14:23:35.615Z,13.88
2019-02-20T14:26:00.405Z,14.88
2019-02-20T14:28:24.928Z,15.39
2019-02-20T14:30:49.334Z,14.69
2019-02-20T14:33:13.791Z,13.97
2019-02-20T14:35:38.193Z,14.86
2019-02-20T14:38:02.634Z,14.10
2019-02-20T14:40:27.035Z,13.39
2019-02-20T14:42:53.266Z,13.57
2019-02-20T14:45:23.003Z,13.73
2019-02-20T14:47:47.400Z,12.56
2019-02-20T14:50:22.849Z,13.27
2019-02-20T14:57:59.815Z,14.97
2019-02-20T15:00:24.359Z,14.43
2019-02-20T15:02:48.749Z,16.56
2019-02-20T15:05:13.579Z,17.02
2019-02-20T15:07:37.974Z,14.57
2019-02-20T15:10:02.482Z,14.80
2019-02-20T15:12:26.870Z,14.27
2019-02-20T15:14:51.297Z,14.73
2019-02-20T15:17:15.696Z,13.53
2019-02-20T15:19:40.133Z,13.05
2019-02-20T15:22:04.539Z,13.08
2019-02-20T15:24:28.972Z,12.15
2019-02-20T15:26:53.448Z,11.95
2019-02-20T15:29:17.993Z,12.29
2019-02-20T15:31:42.685Z,11.65
2019-02-20T15:34:07.089Z,11.56
2019-02-20T15:36:31.502Z,12.23
2019-02-20T15:38:55.905Z,13.24
2019-02-20T15:41:20.332Z,12.41
2019-02-20T15:43:44.735Z,12.39
2019-02-20T15:48:45.301Z,12.33
2019-02-20T15:53:49.363Z,11.96
2019-02-20T15:56:13.846Z,11.55
2019-02-20T15:58:38.250Z,11.22
2019-02-20T16:01:02.839Z,11.44
2019-02-20T16:03:27.299Z,11.23
2019-02-20T16:05:51.772Z,11.75
2019-02-20T16:08:16.165Z,11.71
2019-02-20T16:10:40.628Z,11.57
2019-02-20T16:13:05.145Z,11.66
2019-02-20T16:15:29.891Z,11.47
2019-02-20T16:17:54.559Z,11.57
2019-02-20T16:20:18.967Z,11.47
2019-02-20T16:25:19.404Z,11.01
2019-02-20T16:27:55.839Z,11.08
2019-02-20T16:30:20.305Z,10.81
2019-02-20T16:32:44.712Z,10.81
2019-02-20T16:35:16.666Z,10.83
2019-02-20T16:37:41.181Z,10.59
2019-02-20T16:45:38.139Z,11.14
2019-02-20T16:48:02.655Z,11.78
2019-02-20T16:50:27.142Z,11.81
2019-02-20T16:52:51.647Z,11.64
2019-02-20T16:55:19.080Z,11.56
2019-02-20T17:00:24.407Z,12.39
2019-02-20T17:02:59.606Z,12.17
2019-02-20T17:05:24.049Z,12.00
2019-02-20T17:10:24.597Z,11.77
2019-02-20T17:28:47.184Z,11.48
2019-02-20T17:33:47.692Z,11.85
2019-02-20T17:36:12.336Z,11.77
2019-02-20T17:38:36.731Z,11.28
2019-02-20T17:41:01.214Z,11.72
2019-02-20T17:43:25.617Z,11.73
2019-02-20T17:45:50.045Z,11.47
2019-02-20T17:48:14.436Z,11.62
2019-02-20T17:50:38.860Z,11.39
2019-02-20T17:55:39.410Z,11.14
2019-02-20T17:58:04.048Z,11.44
2019-02-20T18:03:15.444Z,11.49
2019-02-20T18:05:39.877Z,11.30
2019-02-20T18:08:04.391Z,11.53
2019-02-20T18:10:28.874Z,11.15
2019-02-20T18:12:53.278Z,11.21
2019-02-20T18:15:28.636Z,11.41
2019-02-20T18:17:53.029Z,11.58
2019-02-20T18:20:17.521Z,11.00
2019-02-20T18:22:43.702Z,11.31
2019-02-20T18:25:27.048Z,11.50
2019-02-20T18:27:51.496Z,11.33
2019-02-20T18:33:12.303Z,11.46
2019-02-20T18:35:36.693Z,10.92
2019-02-20T18:38:01.134Z,11.25
2019-02-20T18:40:25.552Z,11.28
2019-02-20T18:42:50.059Z,10.86
2019-02-20T18:48:11.878Z,10.92
2019-02-20T18:50:36.277Z,11.45
2019-02-20T18:53:00.704Z,11.52
2019-02-20T18:55:25.188Z,11.33
2019-02-20T18:57:49.670Z,11.53
2019-02-20T19:00:45.096Z,11.42
2019-02-20T19:03:09.580Z,11.37
2019-02-20T19:05:34.200Z,11.41
2019-02-20T19:07:58.576Z,11.11
2019-02-20T19:13:58.155Z,10.83
2019-02-20T19:17:01.148Z,11.28
2019-02-20T19:19:37.369Z,11.20
2019-02-20T19:22:40.376Z,10.78
2019-02-20T19:25:43.379Z,10.86
2019-02-20T19:28:46.389Z,10.88
2019-02-20T19:31:49.389Z,10.99
2019-02-20T19:37:49.606Z,11.09
2019-02-20T19:40:52.625Z,11.09
2019-02-20T19:43:55.639Z,10.72
2019-02-20T19:46:58.628Z,10.91
2019-02-20T19:50:01.610Z,10.55
2019-02-20T19:58:58.344Z,11.16
2019-02-20T20:02:01.324Z,11.05
2019-02-20T20:08:01.490Z,10.86
2019-02-20T20:13:45.924Z,11.38
2019-02-20T20:16:50.920Z,10.82
2019-02-20T20:19:33.046Z,11.05
2019-02-20T20:22:36.064Z,11.12
2019-02-20T20:28:36.293Z,11.03
2019-02-20T20:34:35.895Z,10.47
2019-02-20T20:37:21.114Z,10.63
2019-02-20T20:43:20.668Z,10.60
2019-02-20T20:52:16.821Z,10.71
2019-02-20T20:55:19.915Z,10.56
2019-02-20T20:58:22.916Z,10.94
2019-02-20T21:01:25.960Z,10.78
2019-02-20T21:04:29.712Z,10.44
2019-02-20T21:13:26.687Z,10.85
2019-02-20T21:22:23.262Z,10.83
2019-02-20T21:25:26.268Z,11.03
2019-02-20T21:28:29.281Z,11.08
2019-02-20T21:31:32.280Z,11.41
2019-02-20T21:54:45.557Z,11.42
2019-02-20T22:00:45.721Z,11.20
2019-02-20T22:03:22.665Z,11.15
2019-02-20T22:15:15.784Z,11.14
2019-02-20T22:18:01.015Z,11.30
2019-02-20T22:20:46.252Z,11.24
2019-02-20T22:23:31.444Z,11.33
2019-02-20T22:26:16.696Z,11.01
2019-02-20T22:32:16.514Z,11.03
2019-02-20T22:35:19.551Z,11.25
2019-02-20T22:38:22.566Z,11.25
2019-02-20T22:41:17.803Z,11.30
2019-02-20T22:44:20.819Z,11.15
2019-02-20T22:47:23.851Z,11.05
2019-02-20T22:50:26.850Z,10.92
2019-02-20T22:56:27.190Z,10.36
2019-02-20T23:02:27.421Z,10.74
2019-02-20T23:11:24.450Z,10.94
2019-02-20T23:14:27.438Z,10.67
2019-02-20T23:16:51.871Z,11.08
2019-02-20T23:19:16.279Z,10.86
2019-02-20T23:21:46.709Z,10.95
2019-02-20T23:24:11.116Z,10.37
2019-02-20T23:26:35.552Z,10.57
2019-02-20T23:28:59.965Z,10.06
2019-02-20T23:31:24.457Z,10.39
2019-02-20T23:36:25.215Z,10.43
2019-02-20T23:38:49.623Z,10.35
2019-02-20T23:41:14.053Z,10.35
2019-02-20T23:43:38.526Z,10.90
2019-02-20T23:46:02.892Z,10.43
2019-02-20T23:48:27.340Z,10.46
2019-02-20T23:50:51.759Z,10.27
2019-02-20T23:53:18.662Z,10.45
2019-02-20T23:55:47.982Z,10.69
2019-02-20T23:58:12.418Z,10.69
